Jefferson, Texas
Current Conditions -  °F | °C
As of 10:35 AM on Friday 28 Nov 2014 (Local Time) from KASL Reporting Station
Clear Clear  
Wind Chill: 55°   Ceiling: Unl
Heat Index: 55°   Visibility: 10mi
Dew Point: 39°   Wind: 10mph
Humidity: 55%   Direction: 170°S
Pressure: 30.35"   Gusts: NA
Location:  32.76°N, 94.35°W
Report Text: KASL 281635Z AUTO 17009KT 10SM CLR 13/04 A3035 RMK AO1 T01300041
Loading
Personal Weather Stations






























Interactive Weather Map New forecast layout! Learn more

10-Day Weather Forecast

Advertisements
Track Severe Weather on mobile